Flight Track Log - Related Links

Times and Time Zones

All times are in EDT time to prevent confusion due to time zone crossing. See the WAV761 flight status page for this flight to view local times or setup timezone preferences in your user account.

Time Position Orientation Groundspeed Altitude Reporting Facility
EDT Latitude Longitude Course Direction KTS MPH feet Rate Location/Type
Thu 10:26:23 PM 65.1500 -151.8333 100° East 140 161 2,600  Level Anchorage Center
Thu 10:27:23 PM 65.1333 -151.7500 115° Southeast 130 150 3,300 750 Climbing Anchorage Center
Thu 10:28:00 PM 65.1197 -151.4711 97° East  Level FlightAware Approximate
Thu 10:28:23 PM 65.1333 -151.6500 90° East 130 150 4,100  Level Anchorage Center
Thu 10:29:00 PM 65.1129 -151.3659 100° East  Level FlightAware Approximate
Thu 10:29:24 PM 65.1167 -151.5667 115° Southeast 130 150 4,800  Level Anchorage Center
Thu 10:30:00 PM 65.1051 -151.2611 100° East  Level FlightAware Approximate
Thu 10:30:24 PM 65.1167 -151.4833 90° East 120 138 5,600  Level Anchorage Center
Thu 10:31:00 PM 65.0972 -151.1564 100° East  Level FlightAware Approximate
Thu 10:31:24 PM 65.1167 -151.4000 90° East 130 150 6,200  Level Anchorage Center
Thu 10:32:24 PM 65.1000 -151.3167 115° Southeast 130 150 7,000 400 Climbing Anchorage Center
Thu 10:33:24 PM 65.1000 -151.2333 90° East 150 173 7,000  Level Anchorage Center
Thu 10:34:25 PM 65.0833 -151.1167 109° East 170 196 7,000  Level Anchorage Center
Thu 10:35:24 PM 65.0833 -151.0167 90° East 170 196 7,000  Level Anchorage Center
Thu 10:36:24 PM 65.0667 -150.9000 109° East 170 196 7,000  Level Anchorage Center
Thu 10:37:25 PM 65.0667 -150.7833 90° East 170 196 7,000  Level Anchorage Center
Thu 10:38:24 PM 65.0500 -150.6833 112° Southeast 170 196 7,000  Level Anchorage Center
Thu 10:39:25 PM 65.0500 -150.5833 90° East 160 184 7,000  Level Anchorage Center
Thu 10:40:25 PM 65.0333 -150.4833 112° Southeast 160 184 7,000  Level Anchorage Center
Thu 10:41:25 PM 65.0333 -150.3667 90° East 160 184 7,000  Level Anchorage Center
Thu 10:42:25 PM 65.0167 -150.2667 111° Southeast 160 184 7,000  Level Anchorage Center
Thu 10:43:25 PM 65.0167 -150.1667 90° East 160 184 7,000  Level Anchorage Center
Thu 10:44:25 PM 65.0000 -150.0667 111° Southeast 160 184 7,000  Level Anchorage Center
Thu 10:45:25 PM 65.0000 -149.9500 90° East 170 196 7,000  Level Anchorage Center
Thu 10:46:26 PM 64.9833 -149.8500 111° Southeast 170 196 7,000  Level Anchorage Center
Thu 10:47:26 PM 64.9833 -149.7333 90° East 160 184 7,000  Level Anchorage Center
Thu 10:48:26 PM 64.9667 -149.6333 111° Southeast 170 196 7,000  Level Anchorage Center
Thu 10:49:26 PM 64.9667 -149.5333 90° East 160 184 7,000  Level Anchorage Center
Thu 10:50:26 PM 64.9500 -149.4167 109° East 160 184 7,000  Level Anchorage Center
Thu 10:52:00 PM 64.9367 -149.2540 101° East  Level FlightAware Approximate
Thu 10:59:00 PM 64.8670 -148.5359 108° East  Level FlightAware Approximate
Thu 11:00:00 PM 64.8580 -148.4327 101° East  Level FlightAware Approximate
Thu 11:01:00 PM 64.8490 -148.3295 102° East  Level FlightAware Approximate
Thu 11:02:00 PM 64.8399 -148.2263 102° East  Level FlightAware Approximate
Thu 11:03:00 PM 64.8307 -148.1232 102° East  Level FlightAware Approximate
Thu 11:04:00 PM 64.8215 -148.0202 102° East  Level FlightAware Approximate
Thu 11:05:00 PM 64.8098 -147.9188 109° East  Level FlightAware Approximate
Thu 11:06:00 PM 64.8000 -147.8500 109° East  Level FlightAware Approximate
Thu 11:07:00 PM 64.8151 -147.8564 North  Level Estimated
Thu 11:08:00 PM 64.8151 -147.8564 109° East  Level Estimated
Thu 11:09:00 PM 64.8151 -147.8564 170° South  Level Estimated
Thu 11:10:00 PM 64.8151 -147.8564 109° East  Level Estimated
Thu 11:11:00 PM 64.8151 -147.8564 170° South  Level Estimated
Thu 11:12:00 PM 64.8151 -147.8564 109° East  Level Estimated
Thu 11:13:00 PM 64.8151 -147.8564 170° South  Level Estimated
Thu 11:14:00 PM 64.8151 -147.8564 109° East  Level Estimated
Thu 11:15:00 PM 64.8151 -147.8564 170° South  Level Estimated
Thu 11:16:00 PM 64.8151 -147.8564 109° East  Level Estimated
Thu 11:17:00 PM 64.8151 -147.8564 170° South  Level Estimated
Thu 11:18:00 PM 64.8151 -147.8564 109° East  Level Estimated

Login

Don't have an account? Register now (free) for customized features, flight alerts, and more!